Change the Weather History Date:

Monday, September 23, 2013

  Actual Average (KJLN) Record (KJLN)
Temperature  
Mean Temperature 62 °F 68 °F  
Max Temperature 75 °F 79 °F 89 °F (2005)
Min Temperature 50 °F 56 °F 34 °F (1995)
Degree Days  
Heating Degree Days 2 2  
Month to date heating degree days 17  
Since 1 July heating degree days 18  
Cooling Degree Days 0 5  
Month to date cooling degree days 186  
Year to date cooling degree days 1613  
Growing Degree Days 12 (Base 50)    
Moisture  
Dew Point 52 °F    
Average Humidity 72    
Maximum Humidity 94    
Minimum Humidity 47    
Precipitation  
Precipitation 0.00 in 0.15 in 1.68 in (1988)
Month to date precipitation 3.82  
Year to date precipitation 34.79  
Sea Level Pressure  
Sea Level Pressure 29.90 in    
Wind  
Wind Speed 7 mph (SE)    
Max Wind Speed 15 mph    
Max Gust Speed 21 mph    
Visibility 10 miles    
Events      
T = Trace of Precipitation, MM = Missing Value Source: NWS Daily Summary

Daily Weather History Graph

Daily Weather History Graph

Search for Another Location

Airport or City:

Trip Planner

Search our weather history database for the weather conditions in past years. The results will help you decide how hot, cold, wet, or windy it might be!

Date:

Astronomy

Sep. 23, 2013 Rise Set
Actual Time 7:04 AM CDT 7:11 PM CDT
Civil Twilight 6:39 AM CDT 7:36 PM CDT
Nautical Twilight 6:08 AM CDT 8:07 PM CDT
Astronomical Twilight 5:38 AM CDT 8:37 PM CDT
Moon 9:50 PM CDT (9/23) 11:18 AM CDT (9/23)
Length of Visible Light 12h 57m
Length of Day
12h 06m
Waning Gibbous, 81% of the Moon is Illuminated
Sep 23
Waning Gibbous
Sep 26
Last Quarter
Oct 4
New
Oct 11
First Quarter
Oct 18
Full

Hourly Weather History & Observations

Time (CDT) Temp. Dew Point Humidity Pressure Visibility Wind Dir Wind Speed Gust Speed Precip Events Conditions
12:15 AM 55.4 °F 50.0 °F 82% 29.91 in 10.0 mi ESE 6.9 mph - N/A   Clear
12:35 AM 53.6 °F 50.0 °F 88% 29.91 in 10.0 mi ESE 6.9 mph - N/A   Clear
12:55 AM 53.6 °F 50.0 °F 88% 29.91 in 10.0 mi ESE 6.9 mph - N/A   Clear
1:15 AM 53.6 °F 51.8 °F 94% 29.91 in 10.0 mi ESE 6.9 mph - N/A   Clear
1:35 AM 53.6 °F 50.0 °F 88% 29.91 in 10.0 mi ESE 5.8 mph - N/A   Clear
1:55 AM 53.6 °F 50.0 °F 88% 29.91 in 10.0 mi ESE 6.9 mph - N/A   Clear
2:15 AM 53.6 °F 50.0 °F 88% 29.91 in 10.0 mi ESE 6.9 mph - N/A   Clear
2:35 AM 53.6 °F 50.0 °F 88% 29.91 in 10.0 mi ESE 6.9 mph - N/A   Clear
2:55 AM 51.8 °F 50.0 °F 94% 29.91 in 10.0 mi ESE 6.9 mph - N/A   Clear
3:15 AM 51.8 °F 50.0 °F 94% 29.91 in 10.0 mi ESE 5.8 mph - N/A   Clear
3:35 AM 51.8 °F 50.0 °F 94% 29.91 in 10.0 mi ESE 4.6 mph - N/A   Clear
3:55 AM 51.8 °F 50.0 °F 94% 29.92 in 10.0 mi ESE 4.6 mph - N/A   Clear
4:15 AM 51.8 °F 50.0 °F 94% 29.92 in 10.0 mi ESE 4.6 mph - N/A   Clear
4:35 AM 51.8 °F 48.2 °F 88% 29.92 in 10.0 mi Calm Calm - N/A   Clear
4:55 AM 51.8 °F 48.2 °F 88% 29.93 in 10.0 mi Calm Calm - N/A   Clear
5:15 AM 50.0 °F 48.2 °F 94% 29.93 in 10.0 mi ESE 4.6 mph - N/A   Clear
5:35 AM 50.0 °F 48.2 °F 94% 29.93 in 10.0 mi SE 4.6 mph - N/A   Clear
5:55 AM 50.0 °F 48.2 °F 94% 29.93 in 10.0 mi SE 3.5 mph - N/A   Clear
6:15 AM 50.0 °F 48.2 °F 94% 29.93 in 10.0 mi ESE 5.8 mph - N/A   Clear
6:35 AM 50.0 °F 48.2 °F 94% 29.94 in 10.0 mi ESE 5.8 mph - N/A   Clear
6:55 AM 50.0 °F 48.2 °F 94% 29.94 in 10.0 mi ESE 5.8 mph - N/A   Clear
7:15 AM 50.0 °F 48.2 °F 94% 29.94 in 10.0 mi ESE 5.8 mph - N/A   Clear
7:35 AM 50.0 °F 48.2 °F 94% 29.94 in 10.0 mi East 4.6 mph - N/A   Clear
7:55 AM 51.8 °F 50.0 °F 94% 29.94 in 10.0 mi ESE 5.8 mph - N/A   Clear
8:15 AM 53.6 °F 50.0 °F 88% 29.94 in 10.0 mi ESE 6.9 mph - N/A   Clear
8:35 AM 55.4 °F 51.8 °F 88% 29.94 in 10.0 mi SE 8.1 mph - N/A   Clear
8:55 AM 59.0 °F 51.8 °F 77% 29.94 in 10.0 mi SE 9.2 mph - N/A   Clear
9:15 AM 60.8 °F 51.8 °F 72% 29.94 in 10.0 mi SSE 10.4 mph - N/A   Clear
9:35 AM 62.6 °F 53.6 °F 72% 29.94 in 10.0 mi SE 9.2 mph - N/A   Clear
9:55 AM 64.4 °F 51.8 °F 64% 29.95 in 10.0 mi SSE 13.8 mph - N/A   Clear
10:15 AM 66.2 °F 51.8 °F 60% 29.95 in 10.0 mi SSE 13.8 mph 19.6 mph N/A   Clear
10:35 AM 68.0 °F 51.8 °F 56% 29.95 in 10.0 mi South 15.0 mph 20.7 mph N/A   Clear
10:55 AM 68.0 °F 51.8 °F 56% 29.95 in 10.0 mi SSE 12.7 mph 17.3 mph N/A   Clear
11:15 AM 68.0 °F 53.6 °F 60% 29.95 in 10.0 mi South 9.2 mph - N/A   Clear
11:55 AM 69.8 °F 53.6 °F 56% 29.94 in 10.0 mi SSE 8.1 mph - N/A   Clear
12:15 PM 69.8 °F 53.6 °F 56% 29.94 in 10.0 mi South 8.1 mph - N/A   Clear
12:35 PM 69.8 °F 53.6 °F 56% 29.93 in 10.0 mi SSE 5.8 mph - N/A   Clear
12:55 PM 71.6 °F 55.4 °F 57% 29.92 in 10.0 mi South 3.5 mph - N/A   Clear
1:15 PM 71.6 °F 53.6 °F 53% 29.91 in 10.0 mi SE 6.9 mph - N/A   Clear
1:35 PM 71.6 °F 53.6 °F 53% 29.90 in 10.0 mi SE 6.9 mph - N/A   Clear
1:55 PM 73.4 °F 53.6 °F 50% 29.88 in 10.0 mi SSE 8.1 mph - N/A   Clear
2:15 PM 73.4 °F 53.6 °F 50% 29.88 in 10.0 mi ESE 9.2 mph 17.3 mph N/A   Clear
2:35 PM 73.4 °F 53.6 °F 50% 29.87 in 10.0 mi SSE 11.5 mph - N/A   Clear
2:55 PM 75.2 °F 53.6 °F 47% 29.86 in 10.0 mi SSE 9.2 mph - N/A   Clear
3:15 PM 75.2 °F 53.6 °F 47% 29.86 in 10.0 mi SE 10.4 mph 17.3 mph N/A   Clear
3:35 PM 75.2 °F 53.6 °F 47% 29.84 in 10.0 mi ESE 12.7 mph 18.4 mph N/A   Clear
3:55 PM 75.2 °F 53.6 °F 47% 29.84 in 10.0 mi ESE 10.4 mph - N/A   Clear
4:15 PM 75.2 °F 53.6 °F 47% 29.84 in 10.0 mi SE 13.8 mph - N/A   Clear
4:35 PM 75.2 °F 55.4 °F 50% 29.83 in 10.0 mi ESE 15.0 mph - N/A   Clear
4:55 PM 75.2 °F 53.6 °F 47% 29.83 in 10.0 mi SE 11.5 mph 17.3 mph N/A   Clear
5:15 PM 75.2 °F 55.4 °F 50% 29.83 in 10.0 mi SE 6.9 mph - N/A   Clear
5:35 PM 75.2 °F 53.6 °F 47% 29.83 in 10.0 mi ESE 12.7 mph 17.3 mph N/A   Clear
5:55 PM 73.4 °F 53.6 °F 50% 29.84 in 10.0 mi ESE 9.2 mph 18.4 mph N/A   Clear
6:15 PM 73.4 °F 53.6 °F 50% 29.84 in 10.0 mi SE 9.2 mph - N/A   Clear
6:35 PM 71.6 °F 55.4 °F 57% 29.84 in 10.0 mi ESE 5.8 mph - N/A   Clear
6:55 PM 69.8 °F 55.4 °F 60% 29.84 in 10.0 mi ESE 5.8 mph - N/A   Clear
7:15 PM 68.0 °F 55.4 °F 64% 29.85 in 10.0 mi ESE 4.6 mph - N/A   Clear
7:35 PM 66.2 °F 55.4 °F 68% 29.85 in 10.0 mi ESE 4.6 mph - N/A   Clear
7:55 PM 64.4 °F 55.4 °F 73% 29.86 in 10.0 mi SSE 3.5 mph - N/A   Clear
8:15 PM 62.6 °F 55.4 °F 77% 29.87 in 10.0 mi ESE 6.9 mph - N/A   Clear
8:35 PM 62.6 °F 55.4 °F 77% 29.88 in 10.0 mi ESE 5.8 mph - N/A   Clear
8:55 PM 62.6 °F 55.4 °F 77% 29.86 in 10.0 mi ESE 11.5 mph - N/A   Clear
9:15 PM 62.6 °F 55.4 °F 77% 29.88 in 10.0 mi SE 5.8 mph - N/A   Clear
9:35 PM 62.6 °F 55.4 °F 77% 29.89 in 10.0 mi SSE 5.8 mph - N/A   Clear
9:55 PM 62.6 °F 53.6 °F 72% 29.90 in 10.0 mi SE 5.8 mph - N/A   Clear
10:15 PM 60.8 °F 53.6 °F 77% 29.91 in 10.0 mi ESE 6.9 mph - N/A   Clear
10:35 PM 60.8 °F 53.6 °F 77% 29.91 in 10.0 mi ESE 6.9 mph - N/A   Clear
10:55 PM 60.8 °F 53.6 °F 77% 29.91 in 10.0 mi ESE 6.9 mph - N/A   Clear
11:15 PM 60.8 °F 53.6 °F 77% 29.91 in 10.0 mi ESE 8.1 mph - N/A   Clear
11:35 PM 60.8 °F 53.6 °F 77% 29.91 in 10.0 mi SE 6.9 mph - N/A   Clear
11:55 PM 60.8 °F 53.6 °F 77% 29.91 in 10.0 mi SE 6.9 mph - N/A   Clear